createdAt,value
2019-02-02T00:00:43.889Z,47.50
2019-02-02T00:03:12.301Z,47.60
2019-02-02T00:05:40.684Z,47.60
2019-02-02T00:08:08.628Z,47.70
2019-02-02T00:10:36.714Z,47.70
2019-02-02T00:13:05.309Z,47.70
2019-02-02T00:15:33.191Z,47.80
2019-02-02T00:18:01.480Z,47.70
2019-02-02T00:20:29.304Z,47.70
2019-02-02T00:22:57.288Z,47.90
2019-02-02T00:25:25.665Z,47.90
2019-02-02T00:27:53.631Z,47.90
2019-02-02T00:30:21.504Z,48.00
2019-02-02T00:32:49.359Z,48.20
2019-02-02T00:35:17.331Z,48.20
2019-02-02T00:37:45.299Z,48.20
2019-02-02T00:40:14.394Z,48.20
2019-02-02T00:42:42.200Z,48.10
2019-02-02T00:45:11.703Z,48.10
2019-02-02T00:47:39.847Z,48.10
2019-02-02T00:50:09.240Z,47.90
2019-02-02T00:52:37.213Z,48.00
2019-02-02T00:55:07.133Z,47.90
2019-02-02T00:57:35.004Z,47.90
2019-02-02T01:00:02.960Z,47.80
2019-02-02T01:02:30.929Z,47.80
2019-02-02T01:04:58.898Z,47.60
2019-02-02T01:07:26.728Z,47.70
2019-02-02T01:09:54.946Z,47.60
2019-02-02T01:12:23.019Z,47.60
2019-02-02T01:14:51.088Z,47.60
2019-02-02T01:17:18.947Z,47.50
2019-02-02T01:19:46.925Z,47.40
2019-02-02T01:22:14.882Z,47.30
2019-02-02T01:24:42.753Z,47.30
2019-02-02T01:27:10.832Z,47.20
2019-02-02T01:29:38.791Z,47.20
2019-02-02T01:32:06.863Z,47.20
2019-02-02T01:34:34.835Z,47.20
2019-02-02T01:37:02.701Z,47.20
2019-02-02T01:39:30.550Z,47.10
2019-02-02T01:41:59.488Z,47.10
2019-02-02T01:44:27.324Z,47.10
2019-02-02T01:46:55.291Z,47.10
2019-02-02T01:49:23.291Z,47.00
2019-02-02T01:51:51.545Z,47.00
2019-02-02T01:54:19.616Z,47.00
2019-02-02T01:56:47.575Z,47.00
2019-02-02T01:59:15.338Z,46.90
2019-02-02T02:01:43.213Z,46.90
2019-02-02T02:04:11.287Z,47.00
2019-02-02T02:06:39.133Z,46.90
2019-02-02T02:09:08.907Z,46.90
2019-02-02T02:11:36.689Z,46.80
2019-02-02T02:14:04.504Z,46.90
2019-02-02T02:16:32.462Z,46.80
2019-02-02T02:19:00.331Z,46.80
2019-02-02T02:21:28.205Z,46.80
2019-02-02T02:23:56.021Z,46.80
2019-02-02T02:26:23.833Z,46.80
2019-02-02T02:28:51.912Z,46.80
2019-02-02T02:31:20.075Z,46.80
2019-02-02T02:33:47.927Z,46.80
2019-02-02T02:36:15.901Z,46.70
2019-02-02T02:38:43.767Z,46.80
2019-02-02T02:41:12.053Z,46.80
2019-02-02T02:43:40.593Z,46.70
2019-02-02T02:46:08.497Z,46.70
2019-02-02T02:48:36.471Z,46.70
2019-02-02T02:51:04.331Z,46.70
2019-02-02T02:53:32.214Z,46.70
2019-02-02T02:56:00.064Z,46.70
2019-02-02T02:58:40.510Z,46.70
2019-02-02T03:00:57.536Z,46.80
2019-02-02T03:03:25.388Z,46.70
2019-02-02T03:05:53.209Z,46.70
2019-02-02T03:08:21.557Z,46.70
2019-02-02T03:10:51.250Z,46.70
2019-02-02T03:13:19.635Z,46.70
2019-02-02T03:15:47.767Z,46.70
2019-02-02T03:18:15.596Z,46.70
2019-02-02T03:20:46.839Z,46.70
2019-02-02T03:23:14.805Z,46.70
2019-02-02T03:25:42.794Z,46.80
2019-02-02T03:28:10.626Z,46.70
2019-02-02T03:30:38.488Z,46.70
2019-02-02T03:33:06.363Z,46.80
2019-02-02T03:35:34.231Z,46.70
2019-02-02T03:38:02.192Z,46.70
2019-02-02T03:40:30.028Z,46.80
2019-02-02T03:42:58.141Z,46.70
2019-02-02T03:45:28.032Z,46.70
2019-02-02T03:47:55.817Z,46.80
2019-02-02T03:50:23.789Z,46.80
2019-02-02T03:52:51.962Z,46.70
2019-02-02T03:55:19.822Z,46.80
2019-02-02T03:57:49.586Z,46.70
2019-02-02T04:00:20.253Z,46.70
2019-02-02T04:02:48.232Z,46.70
2019-02-02T04:05:18.685Z,46.70
2019-02-02T04:07:46.456Z,46.70
2019-02-02T04:10:15.676Z,46.70
2019-02-02T04:12:43.705Z,46.60
2019-02-02T04:15:12.696Z,46.70
2019-02-02T04:17:40.545Z,46.60
2019-02-02T04:20:13.350Z,46.60
2019-02-02T04:22:41.169Z,46.60
2019-02-02T04:25:09.501Z,46.60
2019-02-02T04:27:37.342Z,46.60
2019-02-02T04:30:06.796Z,46.50
2019-02-02T04:32:34.716Z,46.40
2019-02-02T04:35:02.890Z,46.50
2019-02-02T04:37:30.967Z,46.40
2019-02-02T04:39:58.933Z,46.40
2019-02-02T04:42:26.799Z,46.40
2019-02-02T04:44:54.612Z,46.30
2019-02-02T04:47:22.454Z,46.40
2019-02-02T04:49:50.394Z,46.40
2019-02-02T04:52:18.364Z,46.30
2019-02-02T04:54:46.231Z,46.30
2019-02-02T04:57:14.204Z,46.30
2019-02-02T04:59:42.290Z,46.30
2019-02-02T05:02:10.131Z,46.30
2019-02-02T05:04:38.114Z,46.30
2019-02-02T05:07:06.081Z,46.30
2019-02-02T05:09:33.911Z,46.20
2019-02-02T05:12:01.811Z,46.20
2019-02-02T05:14:29.777Z,46.30
2019-02-02T05:16:58.719Z,46.30
2019-02-02T05:19:26.611Z,46.20
2019-02-02T05:21:54.519Z,46.20
2019-02-02T05:24:22.326Z,46.20
2019-02-02T05:26:50.357Z,46.20
2019-02-02T05:29:18.312Z,46.30
2019-02-02T05:31:47.931Z,46.10
2019-02-02T05:34:16.297Z,46.10
2019-02-02T05:36:45.119Z,46.00
2019-02-02T05:39:14.787Z,46.00
2019-02-02T05:41:43.072Z,46.30
2019-02-02T05:44:10.937Z,46.30
2019-02-02T05:46:39.223Z,46.20
2019-02-02T05:49:07.687Z,46.20
2019-02-02T05:51:35.986Z,46.10
2019-02-02T05:54:05.659Z,46.10
2019-02-02T05:56:34.929Z,46.00
2019-02-02T05:59:03.165Z,46.00
2019-02-02T06:01:31.645Z,46.00
2019-02-02T06:03:59.484Z,46.00
2019-02-02T06:06:27.482Z,46.00
2019-02-02T06:08:55.860Z,46.00
2019-02-02T06:11:23.931Z,46.20
2019-02-02T06:13:52.617Z,46.10
2019-02-02T06:16:20.687Z,46.20
2019-02-02T06:18:48.759Z,46.30
2019-02-02T06:21:16.846Z,46.30
2019-02-02T06:23:44.900Z,46.30
2019-02-02T06:26:13.308Z,46.20
2019-02-02T06:28:41.351Z,46.30
2019-02-02T06:31:09.424Z,46.20
2019-02-02T06:33:38.378Z,46.30
2019-02-02T06:36:08.112Z,46.30
2019-02-02T06:38:35.983Z,46.30
2019-02-02T06:41:03.840Z,46.30
2019-02-02T06:43:31.821Z,46.30
2019-02-02T06:45:59.892Z,46.30
2019-02-02T06:48:27.867Z,46.30
2019-02-02T06:50:55.833Z,46.30
2019-02-02T06:53:23.800Z,46.30
2019-02-02T06:55:54.745Z,46.30
2019-02-02T06:58:23.123Z,46.30
2019-02-02T07:00:51.096Z,46.20
2019-02-02T07:03:18.994Z,46.30
2019-02-02T07:05:47.027Z,46.30
2019-02-02T07:08:14.901Z,46.30
2019-02-02T07:10:42.859Z,46.20
2019-02-02T07:13:10.948Z,46.20
2019-02-02T07:15:40.593Z,46.10
2019-02-02T07:18:12.200Z,46.10
2019-02-02T07:20:40.464Z,46.10
2019-02-02T07:23:08.568Z,46.00
2019-02-02T07:25:36.518Z,46.00
2019-02-02T07:28:04.497Z,46.10
2019-02-02T07:30:35.929Z,46.10
2019-02-02T07:33:04.111Z,46.00
2019-02-02T07:35:32.072Z,46.10
2019-02-02T07:38:00.241Z,46.00
2019-02-02T07:40:28.525Z,46.00
2019-02-02T07:42:58.160Z,46.00
2019-02-02T07:45:27.216Z,45.90
2019-02-02T07:47:55.193Z,45.90
2019-02-02T07:50:23.188Z,45.50
2019-02-02T07:52:51.448Z,45.40
2019-02-02T07:55:21.248Z,45.20
2019-02-02T07:57:49.741Z,45.20
2019-02-02T08:00:39.723Z,45.20
2019-02-02T08:02:57.448Z,45.20
2019-02-02T08:05:25.631Z,45.10
2019-02-02T08:07:55.540Z,45.10
2019-02-02T08:10:23.504Z,45.00
2019-02-02T08:12:51.475Z,45.10
2019-02-02T08:15:23.538Z,45.30
2019-02-02T08:17:51.417Z,45.30
2019-02-02T08:20:19.381Z,45.80
2019-02-02T08:22:47.351Z,45.20
2019-02-02T08:25:15.836Z,45.20
2019-02-02T08:27:43.800Z,45.10
2019-02-02T08:30:16.694Z,45.00
2019-02-02T08:32:44.956Z,45.00
2019-02-02T08:35:13.148Z,45.00
2019-02-02T08:37:41.310Z,44.90
2019-02-02T08:40:10.806Z,44.90
2019-02-02T08:42:38.775Z,44.90
2019-02-02T08:45:09.555Z,44.90
2019-02-02T08:47:37.590Z,44.90
2019-02-02T08:50:07.094Z,44.90
2019-02-02T08:52:35.055Z,44.80
2019-02-02T08:55:04.656Z,44.80
2019-02-02T08:57:34.038Z,44.90
2019-02-02T09:00:01.940Z,44.90
2019-02-02T09:02:29.901Z,44.80
2019-02-02T09:04:57.884Z,44.70
2019-02-02T09:07:25.766Z,44.70
2019-02-02T09:09:53.816Z,44.60
2019-02-02T09:12:21.993Z,44.60
2019-02-02T09:14:51.611Z,44.60
2019-02-02T09:17:19.662Z,44.60
2019-02-02T09:19:47.536Z,44.60
2019-02-02T09:22:15.507Z,44.60
2019-02-02T09:24:43.335Z,44.60
2019-02-02T09:27:11.647Z,44.50
2019-02-02T09:29:39.529Z,44.60
2019-02-02T09:32:07.484Z,44.60
2019-02-02T09:34:35.555Z,44.50
2019-02-02T09:37:03.932Z,44.50
2019-02-02T09:39:31.896Z,44.50
2019-02-02T09:41:59.762Z,44.50
2019-02-02T09:44:27.627Z,44.50
2019-02-02T09:46:55.411Z,44.40
2019-02-02T09:49:23.757Z,44.50
2019-02-02T09:51:52.054Z,44.50
2019-02-02T09:54:26.491Z,44.50
2019-02-02T09:56:49.414Z,44.40
2019-02-02T09:59:17.492Z,44.40
2019-02-02T10:01:46.569Z,44.40
2019-02-02T10:04:16.318Z,44.40
2019-02-02T10:06:44.486Z,44.30
2019-02-02T10:09:12.434Z,44.40
2019-02-02T10:11:40.723Z,44.40
2019-02-02T10:14:08.527Z,44.30
2019-02-02T10:16:38.307Z,44.30
2019-02-02T10:19:06.271Z,44.40
2019-02-02T10:21:34.134Z,44.30
2019-02-02T10:24:02.053Z,44.30
2019-02-02T10:26:29.860Z,44.30
2019-02-02T10:28:57.724Z,44.30
2019-02-02T10:31:25.805Z,44.30
2019-02-02T10:33:53.662Z,44.30
2019-02-02T10:36:21.632Z,44.30
2019-02-02T10:38:49.915Z,44.30
2019-02-02T10:41:18.093Z,44.30
2019-02-02T10:43:45.988Z,44.30
2019-02-02T10:46:13.920Z,44.30
2019-02-02T10:48:42.880Z,44.40
2019-02-02T10:51:10.781Z,44.30
2019-02-02T10:53:38.714Z,44.30
2019-02-02T10:56:06.723Z,44.30
2019-02-02T10:58:34.546Z,44.30
2019-02-02T11:01:02.414Z,44.30
2019-02-02T11:03:30.426Z,44.30
2019-02-02T11:05:58.294Z,44.30
2019-02-02T11:08:26.278Z,44.20
2019-02-02T11:10:54.178Z,44.30
2019-02-02T11:13:22.238Z,44.20
2019-02-02T11:15:50.641Z,44.20
2019-02-02T11:18:18.624Z,44.20
2019-02-02T11:20:48.393Z,44.20
2019-02-02T11:23:16.470Z,44.20
2019-02-02T11:25:46.118Z,44.20
2019-02-02T11:28:14.124Z,44.20
2019-02-02T11:30:42.690Z,44.20
2019-02-02T11:33:10.868Z,44.10
2019-02-02T11:35:38.837Z,44.20
2019-02-02T11:38:06.698Z,44.10
2019-02-02T11:40:35.186Z,44.20
2019-02-02T11:43:03.763Z,44.10
2019-02-02T11:45:31.733Z,44.10
2019-02-02T11:47:59.847Z,44.10
2019-02-02T11:50:27.871Z,44.10
2019-02-02T11:52:56.049Z,44.10
2019-02-02T11:55:25.148Z,44.10
2019-02-02T11:57:53.113Z,44.00
2019-02-02T12:00:22.310Z,44.10
2019-02-02T12:02:50.902Z,44.10
2019-02-02T12:05:18.867Z,44.10
2019-02-02T12:07:46.832Z,44.00
2019-02-02T12:10:16.655Z,44.00
2019-02-02T12:12:46.378Z,44.00
2019-02-02T12:15:15.866Z,44.00
2019-02-02T12:17:43.732Z,44.00
2019-02-02T12:20:16.510Z,44.00
2019-02-02T12:22:44.385Z,44.00
2019-02-02T12:25:15.832Z,44.00
2019-02-02T12:27:43.791Z,44.00
2019-02-02T12:30:16.274Z,44.00
2019-02-02T12:32:44.653Z,44.00
2019-02-02T12:35:13.972Z,43.90
2019-02-02T12:37:41.915Z,44.00
2019-02-02T12:40:11.424Z,43.90
2019-02-02T12:42:40.385Z,43.90
2019-02-02T12:45:12.726Z,43.90
2019-02-02T12:47:40.663Z,43.90
2019-02-02T12:50:10.682Z,43.90
2019-02-02T12:52:38.645Z,43.90
2019-02-02T12:55:07.510Z,43.90
2019-02-02T12:57:35.502Z,43.90
2019-02-02T13:00:03.578Z,43.90
2019-02-02T13:02:38.235Z,43.90
2019-02-02T13:05:01.049Z,43.90
2019-02-02T13:07:28.933Z,43.90
2019-02-02T13:09:57.090Z,43.90
2019-02-02T13:12:24.965Z,43.90
2019-02-02T13:14:53.233Z,44.00
2019-02-02T13:17:21.196Z,43.90
2019-02-02T13:19:49.166Z,43.90
2019-02-02T13:22:17.144Z,43.90
2019-02-02T13:24:45.422Z,43.90
2019-02-02T13:27:13.899Z,43.90
2019-02-02T13:29:48.114Z,43.80
2019-02-02T13:32:16.593Z,43.80
2019-02-02T13:34:46.193Z,43.70
2019-02-02T13:37:14.170Z,43.70
2019-02-02T13:39:42.144Z,44.50
2019-02-02T13:42:10.628Z,44.00
2019-02-02T13:44:38.583Z,44.40
2019-02-02T13:47:07.804Z,44.80
2019-02-02T13:49:35.759Z,44.60
2019-02-02T13:52:04.609Z,44.30
2019-02-02T13:54:32.617Z,44.10
2019-02-02T13:57:00.561Z,44.10
2019-02-02T13:59:29.590Z,44.10
2019-02-02T14:01:59.291Z,44.00
2019-02-02T14:04:27.252Z,44.10
2019-02-02T14:06:55.262Z,44.20
2019-02-02T14:09:23.401Z,44.10
2019-02-02T14:11:51.258Z,44.60
2019-02-02T14:14:19.543Z,44.80
2019-02-02T14:16:47.514Z,44.90
2019-02-02T14:19:15.603Z,44.90
2019-02-02T14:21:44.066Z,44.90
2019-02-02T14:24:12.166Z,44.80
2019-02-02T14:26:40.101Z,45.00
2019-02-02T14:29:08.271Z,44.80
2019-02-02T14:31:36.221Z,44.90
2019-02-02T14:34:04.590Z,45.90
2019-02-02T14:36:32.876Z,45.70
2019-02-02T14:39:00.835Z,45.60
2019-02-02T14:41:28.838Z,45.30
2019-02-02T14:43:57.033Z,45.60
2019-02-02T14:46:25.102Z,44.80
2019-02-02T14:48:53.160Z,44.50
2019-02-02T14:51:21.119Z,44.20
2019-02-02T14:53:49.302Z,44.40
2019-02-02T14:56:17.265Z,44.30
2019-02-02T14:58:45.238Z,44.30
2019-02-02T15:01:13.208Z,44.50
2019-02-02T15:03:41.587Z,44.90
2019-02-02T15:06:09.806Z,44.40
2019-02-02T15:08:38.160Z,44.30
2019-02-02T15:11:06.009Z,44.20
2019-02-02T15:13:34.180Z,44.20
2019-02-02T15:16:05.520Z,44.10
2019-02-02T15:18:33.415Z,44.00
2019-02-02T15:21:01.468Z,43.90
2019-02-02T15:23:29.290Z,43.80
2019-02-02T15:25:57.302Z,43.70
2019-02-02T15:28:25.377Z,43.70
2019-02-02T15:30:53.351Z,43.60
2019-02-02T15:33:21.517Z,43.60
2019-02-02T15:35:49.581Z,43.60
2019-02-02T15:38:19.085Z,43.60
2019-02-02T15:40:58.441Z,43.50
2019-02-02T15:43:16.875Z,43.50
2019-02-02T15:45:44.837Z,43.40
2019-02-02T15:48:14.682Z,43.50
2019-02-02T15:50:42.461Z,43.50
2019-02-02T15:53:10.389Z,43.50
2019-02-02T15:55:38.319Z,43.40
2019-02-02T15:58:06.334Z,43.40
2019-02-02T16:00:37.772Z,43.40
2019-02-02T16:03:05.945Z,43.40
2019-02-02T16:05:34.527Z,43.30
2019-02-02T16:08:03.927Z,43.30
2019-02-02T16:10:32.735Z,43.30
2019-02-02T16:13:01.107Z,43.30
2019-02-02T16:15:29.081Z,42.90
2019-02-02T16:17:57.044Z,43.10
2019-02-02T16:20:29.513Z,43.10
2019-02-02T16:22:57.486Z,43.10
2019-02-02T16:25:25.346Z,43.00
2019-02-02T16:27:53.308Z,42.90
2019-02-02T16:30:22.830Z,42.80
2019-02-02T16:32:50.795Z,42.80
2019-02-02T16:35:18.674Z,42.90
2019-02-02T16:37:46.941Z,43.00
2019-02-02T16:40:17.052Z,43.10
2019-02-02T16:42:44.968Z,43.40
2019-02-02T16:45:14.224Z,43.60
2019-02-02T16:50:18.150Z,43.60
2019-02-02T16:52:51.549Z,43.80
2019-02-02T16:57:08.267Z,43.80
2019-02-02T16:59:38.387Z,43.90
2019-02-02T17:04:28.179Z,43.80
2019-02-02T17:06:56.149Z,44.00
2019-02-02T17:09:24.108Z,43.90
2019-02-02T17:11:52.011Z,43.90
2019-02-02T17:14:19.944Z,43.90
2019-02-02T17:16:49.550Z,43.90
2019-02-02T17:19:17.650Z,44.00
2019-02-02T17:21:45.598Z,44.00
2019-02-02T17:24:14.558Z,44.00
2019-02-02T17:26:42.449Z,44.00
2019-02-02T17:29:10.818Z,44.10
2019-02-02T17:31:38.755Z,44.10
2019-02-02T17:34:06.658Z,44.60
2019-02-02T17:36:34.547Z,44.60
2019-02-02T17:39:02.902Z,44.70
2019-02-02T17:41:30.821Z,44.50
2019-02-02T17:43:58.745Z,44.30
2019-02-02T17:46:26.644Z,44.20
2019-02-02T17:48:54.564Z,44.40
2019-02-02T17:51:22.410Z,44.10
2019-02-02T17:53:53.768Z,44.30
2019-02-02T17:56:21.665Z,44.00
2019-02-02T17:58:49.566Z,44.40
2019-02-02T18:01:17.471Z,44.30
2019-02-02T18:03:45.296Z,44.00
2019-02-02T18:06:13.234Z,44.00
2019-02-02T18:08:41.068Z,43.80
2019-02-02T18:11:09.006Z,43.80
2019-02-02T18:13:36.896Z,44.00
2019-02-02T18:16:04.778Z,43.80
2019-02-02T18:18:32.743Z,43.70
2019-02-02T18:21:00.560Z,43.60
2019-02-02T18:23:28.904Z,43.40
2019-02-02T18:25:56.805Z,43.30
2019-02-02T18:28:25.261Z,43.20
2019-02-02T18:30:53.160Z,43.20
2019-02-02T18:33:21.051Z,43.20
2019-02-02T18:35:49.075Z,43.20
2019-02-02T18:38:16.910Z,43.30
2019-02-02T18:40:44.827Z,43.20
2019-02-02T18:43:12.662Z,43.20
2019-02-02T18:45:40.681Z,43.00
2019-02-02T18:48:08.585Z,43.00
2019-02-02T18:50:36.416Z,43.30
2019-02-02T18:53:04.353Z,42.90
2019-02-02T18:55:43.067Z,43.10
2019-02-02T18:58:11.141Z,43.00
2019-02-02T19:00:39.067Z,43.10
2019-02-02T19:03:07.030Z,43.30
2019-02-02T19:05:34.786Z,43.20
2019-02-02T19:08:02.754Z,43.30
2019-02-02T19:10:32.148Z,44.00
2019-02-02T19:13:00.595Z,43.40
2019-02-02T19:15:28.665Z,43.40
2019-02-02T19:17:56.583Z,43.40
2019-02-02T19:20:24.428Z,43.30
2019-02-02T19:22:52.366Z,43.50
2019-02-02T19:25:20.224Z,43.30
2019-02-02T19:27:48.172Z,43.10
2019-02-02T19:30:17.667Z,43.30
2019-02-02T19:32:45.568Z,43.50
2019-02-02T19:35:16.205Z,43.80
2019-02-02T19:37:43.155Z,43.70
2019-02-02T19:40:12.639Z,43.50
2019-02-02T19:42:40.548Z,43.40
2019-02-02T19:45:10.032Z,43.70
2019-02-02T19:47:41.005Z,44.00
2019-02-02T19:50:16.292Z,43.60
2019-02-02T19:52:44.274Z,43.90
2019-02-02T19:55:14.618Z,43.50
2019-02-02T19:57:41.792Z,43.50
2019-02-02T20:00:14.233Z,43.40
2019-02-02T20:02:42.397Z,44.20
2019-02-02T20:05:10.298Z,42.70
2019-02-02T20:07:38.131Z,42.80
2019-02-02T20:10:10.507Z,42.80
2019-02-02T20:12:38.332Z,42.90
2019-02-02T20:15:08.086Z,42.80
2019-02-02T20:17:36.054Z,43.10
2019-02-02T20:20:06.993Z,43.00
2019-02-02T20:22:34.962Z,43.20
2019-02-02T20:25:02.819Z,43.10
2019-02-02T20:27:30.901Z,43.40
2019-02-02T20:29:58.979Z,43.50
2019-02-02T20:32:27.654Z,43.50
2019-02-02T20:34:55.456Z,43.70
2019-02-02T20:37:27.707Z,43.70
2019-02-02T20:39:55.864Z,43.80
2019-02-02T20:42:23.708Z,43.90
2019-02-02T20:44:51.628Z,44.00
2019-02-02T20:47:19.774Z,44.00
2019-02-02T20:49:47.727Z,44.20
2019-02-02T20:52:16.118Z,44.20
2019-02-02T20:54:44.296Z,44.30
2019-02-02T20:59:39.846Z,44.60
2019-02-02T21:02:11.523Z,44.50
2019-02-02T21:04:42.522Z,44.80
2019-02-02T21:07:14.741Z,44.40
2019-02-02T21:09:46.551Z,44.30
2019-02-02T21:12:17.689Z,44.40
2019-02-02T21:14:48.832Z,44.30
2019-02-02T21:17:21.286Z,44.90
2019-02-02T21:19:52.043Z,44.10
2019-02-02T21:22:22.637Z,44.00
2019-02-02T21:24:53.400Z,43.90
2019-02-02T21:27:24.649Z,44.00
2019-02-02T21:29:55.695Z,43.90
2019-02-02T21:32:26.316Z,43.80
2019-02-02T21:34:57.378Z,43.70
2019-02-02T21:37:32.492Z,43.80
2019-02-02T21:40:03.537Z,43.80
2019-02-02T21:42:34.058Z,43.70
2019-02-02T21:45:06.553Z,43.60
2019-02-02T21:47:37.172Z,43.50
2019-02-02T21:50:08.008Z,44.00
2019-02-02T21:52:40.072Z,44.10
2019-02-02T21:55:10.822Z,44.30
2019-02-02T21:57:40.216Z,44.50
2019-02-02T22:00:11.259Z,44.60
2019-02-02T22:02:40.758Z,44.80
2019-02-02T22:05:10.165Z,44.90
2019-02-02T22:07:38.947Z,45.00
2019-02-02T22:10:09.410Z,45.00
2019-02-02T22:12:40.220Z,44.90
2019-02-02T22:15:13.979Z,44.90
2019-02-02T22:17:43.220Z,44.90
2019-02-02T22:20:13.024Z,44.90
2019-02-02T22:22:43.766Z,45.00
2019-02-02T22:25:16.854Z,45.00
2019-02-02T22:27:45.861Z,45.00
2019-02-02T22:30:16.475Z,45.10
2019-02-02T22:32:47.523Z,45.10
2019-02-02T22:35:18.253Z,45.30
2019-02-02T22:37:49.397Z,45.80
2019-02-02T22:40:21.464Z,45.90
2019-02-02T22:42:52.289Z,46.00
2019-02-02T22:45:23.128Z,45.70
2019-02-02T22:47:54.585Z,45.90
2019-02-02T22:50:26.138Z,45.90
2019-02-02T22:52:57.176Z,46.00
2019-02-02T22:55:28.054Z,45.80
2019-02-02T22:57:58.877Z,45.70
2019-02-02T23:00:54.978Z,45.80
2019-02-02T23:03:32.153Z,45.70
2019-02-02T23:06:13.231Z,45.80
2019-02-02T23:09:04.744Z,45.70
2019-02-02T23:11:47.840Z,45.70
2019-02-02T23:14:19.575Z,45.70
2019-02-02T23:16:50.275Z,45.70
2019-02-02T23:19:21.042Z,45.70
2019-02-02T23:21:51.820Z,46.40
2019-02-02T23:24:22.476Z,45.70
2019-02-02T23:26:53.500Z,45.60
2019-02-02T23:29:40.541Z,45.60
2019-02-02T23:32:11.271Z,45.60
2019-02-02T23:34:41.895Z,45.50
2019-02-02T23:37:13.045Z,45.60
2019-02-02T23:39:43.876Z,45.60
2019-02-02T23:42:14.612Z,45.70
2019-02-02T23:44:45.448Z,45.10
2019-02-02T23:47:16.188Z,45.20
2019-02-02T23:49:47.127Z,45.10
2019-02-02T23:52:18.364Z,45.10
2019-02-02T23:54:52.061Z,45.10
2019-02-02T23:57:23.009Z,45.00
2019-02-02T23:59:55.653Z,45.10
